Last 24 Hours

Thomas Mountain

10 Minute Data | America/Los_Angeles
as of 5/10/26 6:11 AM PDT
Date & Time Temp (°F) Dew Pt (°F) RH (%) Wind Spd (mph) Wind Dir (°) Wind Gust (mph) Wind Gst Dir (°) Daily Max Temp (°F) Daily Min Temp (°F)
5/10/26 - 0610 70.6 18.5 14 8.8 NE | 42 9.9 NE | 48 71.3 65.5
5/10/26 - 0600 70.3 18.0 13 8.3 NE | 35 10.7 NE | 42 71.3 65.5
5/10/26 - 0550 70.1 15.6 12 8.1 NE | 35 9.8 NNE | 30 71.3 65.5
5/10/26 - 0540 69.5 14.7 12 7.5 NNE | 30 9.0 NE | 40 71.3 65.5
5/10/26 - 0530 69.8 16.3 13 7.5 NNE | 18 9.3 NNE | 20 71.3 65.5
5/10/26 - 0520 70.7 14.6 12 7.5 NNE | 12 9.4 NNE | 19 71.3 65.5
5/10/26 - 0510 71.1 13.9 11 7.9 NNE | 15 9.4 N | 10 71.3 65.5
5/10/26 - 0500 70.9 12.8 11 7.4 NNE | 13 8.8 NNE | 15 71.1 65.5
5/10/26 - 0450 70.6 10.4 10 6.7 NNE | 17 9.0 NNE | 17 71.0 65.5
5/10/26 - 0440 70.0 6.9 8 6.3 NNE | 13 8.5 N | 10 70.6 65.5
5/10/26 - 0430 70.3 3.1 7 6.2 NNE | 16 9.4 N | 0 70.6 65.5
5/10/26 - 0420 70.1 2.8 7 6.1 N | 7 8.1 N | 7 70.6 65.5
5/10/26 - 0410 69.7 2.6 7 5.5 N | 9 7.6 N | 9 70.3 65.5
5/10/26 - 0400 69.5 3.6 7 4.9 N | 11 7.2 N | 4 70.3 65.5
5/10/26 - 0350 69.7 5.0 8 5.8 N | 9 8.4 N | 354 70.3 65.5
5/10/26 - 0340 68.9 4.4 8 3.7 NNE | 29 7.9 N | 2 69.8 65.5
5/10/26 - 0330 69.5 3.8 7 4.9 NNE | 12 6.9 NNE | 19 69.8 65.5
5/10/26 - 0320 68.5 4.8 8 4.9 NNE | 15 7.5 N | 7 69.8 65.5
5/10/26 - 0310 67.7 4.6 8 6.1 NNE | 16 8.0 NNE | 14 69.8 65.5
5/10/26 - 0300 66.1 6.6 9 6.0 NNE | 22 7.6 NNE | 13 69.8 65.5
5/10/26 - 0250 66.3 7.3 10 4.8 NNE | 30 7.9 NE | 38 69.8 65.5
5/10/26 - 0240 67.2 4.3 8 3.8 NE | 34 7.1 NE | 38 69.8 66.7
5/10/26 - 0230 68.6 2.1 7 4.3 NE | 44 5.5 NE | 47 69.8 67.1
5/10/26 - 0220 69.2 -1.0 6 4.0 NE | 51 5.7 NE | 52 69.8 67.1
5/10/26 - 0210 69.3 -2.4 6 5.0 N | 355 7.0 N | 354 69.8 67.1
5/10/26 - 0200 68.6 -1.9 6 3.9 NNW | 344 6.2 NNW | 331 69.6 67.1
5/10/26 - 0150 68.3 -1.6 6 6.3 N | 7 7.8 NNE | 15 69.6 67.1
5/10/26 - 0140 68.7 -1.0 6 7.8 NNE | 13 9.2 NNE | 16 69.6 67.1
5/10/26 - 0130 69.2 -0.3 6 6.1 NNE | 12 7.8 N | 10 69.6 67.1
5/10/26 - 0120 67.6 1.4 7 6.2 NNE | 14 6.9 NNE | 12 68.4 67.1
5/10/26 - 0110 67.6 1.3 7 6.6 NNE | 20 7.7 NNE | 18 68.3 67.2
5/10/26 - 0100 68.9 0.1 6 5.8 NNE | 14 7.1 N | 3 78.8 61.9
5/10/26 - 0050 70.1 -1.1 6 7.5 N | 0 9.2 N | 3 78.8 61.9
5/10/26 - 0040 69.8 -0.9 6 7.9 N | 1 9.0 N | 7 78.8 61.9
5/10/26 - 0030 69.8 0.1 6 6.5 N | 355 8.1 N | 2 78.8 61.9
5/10/26 - 0020 70.3 2.1 7 5.9 NNW | 348 7.3 NNW | 346 78.8 61.9
5/10/26 - 0010 70.7 2.1 7 7.1 NNW | 347 8.4 N | 349 78.8 61.9
5/10/26 - 0000 70.4 3.8 7 6.9 N | 350 7.7 N | 352 78.8 61.9
5/9/26 - 2350 70.0 1.0 6 7.0 NNW | 347 8.0 N | 354 78.8 61.9
5/9/26 - 2340 69.1 3.7 7 5.6 NNW | 344 6.9 NNW | 346 78.8 61.9
5/9/26 - 2330 69.9 7.8 9 5.9 NNW | 347 7.2 NNW | 342 78.8 61.9
5/9/26 - 2320 69.5 6.3 8 4.8 NW | 320 7.4 NNW | 341 78.8 61.9
5/9/26 - 2310 70.0 6.1 8 4.3 NW | 304 6.8 NNW | 347 78.8 61.9
5/9/26 - 2300 70.6 7.7 8 7.0 N | 353 7.9 N | 352 78.8 61.9
5/9/26 - 2250 69.9 6.1 8 6.9 N | 1 7.6 N | 1 78.8 61.9
5/9/26 - 2240 69.7 6.4 8 6.8 N | 357 8.5 N | 6 78.8 61.9
5/9/26 - 2230 70.0 4.6 8 7.3 N | 354 8.4 N | 354 78.8 61.9
5/9/26 - 2220 69.3 7.9 9 3.3 N | 352 7.7 N | 352 78.8 61.9
5/9/26 - 2210 70.0 10.0 10 2.6 NNW | 331 3.7 NNW | 336 78.8 61.9
5/9/26 - 2200 69.7 7.4 9 5.3 NNW | 343 7.3 N | 350 78.8 61.9
5/9/26 - 2150 65.5 24.5 22 4.2 NNE | 21 7.1 N | 0 78.8 61.9
5/9/26 - 2140 65.2 25.7 23 3.6 N | 350 6.6 NNE | 17 78.8 61.9
5/9/26 - 2130 65.9 26.3 23 5.3 N | 1 7.7 NNW | 346 78.8 61.9
5/9/26 - 2120 63.1 35.0 35 6.6 NNW | 340 9.4 NNW | 344 78.8 61.9
5/9/26 - 2110 62.0 39.9 44 8.1 N | 350 11.7 N | 351 78.8 61.9
5/9/26 - 2100 62.4 40.6 45 7.7 N | 356 11.0 N | 354 78.8 62.0
5/9/26 - 2050 62.6 41.0 45 8.5 N | 353 12.2 N | 354 78.8 62.1
5/9/26 - 2040 63.0 40.7 44 8.4 N | 6 11.9 N | 11 78.8 62.1
5/9/26 - 2030 63.6 41.0 43 9.1 N | 2 12.1 N | 0 78.8 62.1
5/9/26 - 2020 63.6 41.9 45 9.4 N | 2 13.0 N | 353 78.8 62.1
5/9/26 - 2010 64.0 41.1 43 7.7 NNE | 13 12.1 N | 10 78.8 62.1
5/9/26 - 2000 64.9 41.5 42 7.2 NNE | 19 10.6 NNE | 28 78.8 62.1
5/9/26 - 1950 66.0 40.6 39 7.0 N | 11 10.6 NNE | 12 78.8 62.1
5/9/26 - 1940 66.7 41.1 39 7.0 N | 350 11.8 N | 9 78.8 62.1
5/9/26 - 1930 66.3 43.3 43 6.4 N | 351 10.1 NNE | 13 78.8 62.1
5/9/26 - 1920 66.7 43.7 43 6.4 N | 9 10.0 NNE | 13 78.8 62.1
5/9/26 - 1910 68.0 43.4 41 4.7 N | 11 8.5 NNE | 12 78.8 62.1
5/9/26 - 1900 69.7 43.2 38 2.3 N | 352 5.0 N | 350 78.8 62.1
5/9/26 - 1850 71.1 42.7 36 3.9 NW | 314 8.0 W | 270 78.8 62.1
5/9/26 - 1840 71.8 42.1 34 4.7 W | 281 10.4 WSW | 241 78.8 62.1
5/9/26 - 1830 72.2 41.3 33 6.2 W | 265 12.4 W | 264 78.8 62.1
5/9/26 - 1820 73.0 41.0 32 6.0 W | 263 13.1 WSW | 258 78.8 62.1
5/9/26 - 1810 73.3 39.4 29 6.3 W | 270 13.1 WSW | 258 78.8 62.1
5/9/26 - 1800 73.3 39.0 29 9.7 WSW | 258 17.8 W | 263 78.8 62.1
5/9/26 - 1750 73.7 38.1 27 9.5 W | 262 17.7 WSW | 253 78.8 62.1
5/9/26 - 1740 73.9 38.5 28 10.6 W | 262 17.2 W | 268 78.8 62.1
5/9/26 - 1730 74.6 39.9 29 11.0 WSW | 253 19.5 SW | 228 78.8 62.1
5/9/26 - 1720 74.8 39.2 28 9.2 WSW | 251 17.3 W | 272 78.8 62.1
5/9/26 - 1710 74.8 39.5 28 9.2 W | 259 18.0 WSW | 251 78.8 62.1
5/9/26 - 1700 75.2 40.1 28 11.3 WSW | 250 20.6 WSW | 242 78.8 62.1
5/9/26 - 1650 75.2 40.5 29 10.7 W | 261 22.6 WSW | 243 78.8 62.1
5/9/26 - 1640 75.3 40.4 28 11.1 WSW | 251 18.5 W | 261 78.8 62.1
5/9/26 - 1630 75.5 39.9 28 9.9 WSW | 257 18.8 WSW | 240 78.8 62.1
5/9/26 - 1620 75.6 39.6 27 11.9 WSW | 246 19.1 WSW | 252 78.8 62.1
5/9/26 - 1610 75.9 39.4 27 12.1 WSW | 244 18.8 SW | 234 78.8 62.1
5/9/26 - 1600 75.9 39.0 26 12.1 WSW | 250 20.5 WSW | 245 78.8 62.1
5/9/26 - 1550 76.3 39.1 26 12.3 WSW | 252 22.4 WSW | 256 78.8 62.1
5/9/26 - 1540 76.4 38.9 26 13.1 WSW | 250 21.3 WSW | 255 78.8 62.1
5/9/26 - 1530 75.9 38.8 26 12.0 WSW | 250 18.8 WSW | 244 78.8 62.1
5/9/26 - 1520 76.0 39.0 26 11.4 WSW | 245 19.0 WSW | 255 78.8 62.1
5/9/26 - 1510 76.5 39.4 26 14.8 WSW | 245 21.7 WSW | 239 78.8 62.1
5/9/26 - 1500 76.8 39.3 26 13.3 WSW | 248 22.9 WSW | 247 78.8 62.1
5/9/26 - 1450 76.6 39.2 26 11.7 WSW | 248 20.8 SW | 236 78.8 62.1
5/9/26 - 1440 76.5 38.7 26 11.2 WSW | 252 19.7 WSW | 258 78.8 62.1
5/9/26 - 1430 76.3 39.1 26 11.0 W | 259 22.3 WSW | 252 78.8 62.1
5/9/26 - 1420 76.2 38.8 26 12.2 WSW | 244 20.2 WSW | 250 78.8 62.1
5/9/26 - 1410 76.9 40.4 27 12.6 WSW | 241 18.2 WSW | 237 78.8 62.1
5/9/26 - 1400 76.6 40.9 28 14.0 WSW | 240 21.9 WSW | 243 78.8 62.1
5/9/26 - 1350 75.9 40.1 28 12.8 WSW | 242 21.4 SW | 231 78.8 62.1
5/9/26 - 1340 76.6 41.1 28 13.3 WSW | 248 24.0 WSW | 243 78.8 62.1
5/9/26 - 1330 76.8 42.0 29 13.2 WSW | 242 21.0 SW | 217 78.8 62.1
5/9/26 - 1320 77.3 40.4 27 12.4 WSW | 247 20.0 WSW | 251 78.8 62.1
5/9/26 - 1310 76.4 40.1 27 11.2 WSW | 249 19.4 WSW | 255 78.1 62.1
5/9/26 - 1300 76.4 40.7 28 12.0 WSW | 250 24.6 SW | 234 78.1 62.1
5/9/26 - 1250 76.8 39.3 26 11.9 WSW | 240 17.5 SW | 233 78.1 62.1
5/9/26 - 1240 76.9 40.9 27 13.1 SW | 230 23.8 SW | 225 78.1 62.1
5/9/26 - 1230 76.0 40.3 28 12.8 WSW | 239 20.0 WSW | 239 76.8 62.1
5/9/26 - 1220 75.7 40.6 28 13.4 WSW | 244 20.7 WSW | 248 76.8 62.1
5/9/26 - 1210 75.0 40.1 28 12.9 WSW | 245 19.4 WSW | 243 76.8 62.1
5/9/26 - 1200 74.8 39.6 28 13.1 WSW | 244 18.3 W | 264 76.8 62.1
5/9/26 - 1150 75.6 39.7 27 11.7 WSW | 238 18.0 WSW | 254 76.8 62.1
5/9/26 - 1140 74.6 39.2 28 12.3 WSW | 242 20.2 SW | 231 76.0 62.1
5/9/26 - 1130 75.0 38.9 27 11.4 WSW | 238 17.4 WSW | 240 76.0 62.1
5/9/26 - 1120 74.2 36.0 25 11.6 WSW | 240 17.7 W | 266 75.5 62.1
5/9/26 - 1110 74.6 30.9 20 10.0 WSW | 239 15.9 WSW | 241 75.5 62.1
5/9/26 - 1100 73.6 28.2 18 10.6 WSW | 242 14.9 SW | 232 74.4 62.1
5/9/26 - 1050 73.6 28.8 19 11.1 WSW | 243 16.0 WSW | 246 74.3 62.1
5/9/26 - 1040 73.0 26.8 18 11.2 WSW | 242 15.0 WSW | 254 73.3 62.1
5/9/26 - 1030 72.5 26.2 18 11.5 WSW | 245 15.9 WSW | 246 73.3 62.1
5/9/26 - 1020 72.7 26.5 18 9.9 WSW | 246 15.3 WSW | 239 73.3 62.1
5/9/26 - 1010 72.4 26.0 18 9.9 WSW | 245 13.5 WSW | 244 73.1 62.1
5/9/26 - 1000 72.0 24.4 17 8.6 WSW | 247 12.5 WSW | 245 73.1 62.1
5/9/26 - 0950 71.4 23.3 16 8.1 WSW | 240 11.0 WSW | 242 72.0 62.1
5/9/26 - 0940 71.1 23.1 16 7.9 WSW | 247 11.4 WSW | 246 72.0 62.1
5/9/26 - 0930 71.4 23.8 17 7.6 WSW | 249 11.0 WSW | 245 72.0 62.1
5/9/26 - 0920 71.2 24.8 17 5.2 WSW | 252 11.0 WSW | 255 72.0 62.1
5/9/26 - 0910 70.1 24.0 18 5.0 WSW | 249 6.9 WSW | 238 72.0 62.1
5/9/26 - 0900 69.4 23.8 18 4.4 WSW | 255 6.2 WSW | 256 72.0 62.1
5/9/26 - 0850 68.8 24.6 19 3.7 WSW | 241 5.8 SW | 229 72.0 62.1
5/9/26 - 0840 68.5 23.2 18 3.7 WSW | 241 4.7 WSW | 245 72.0 62.1
5/9/26 - 0830 70.6 19.2 14 2.8 SW | 224 5.0 WSW | 249 72.0 62.1
5/9/26 - 0820 71.5 21.3 15 1.7 ENE | 74 5.0 NE | 46 72.0 62.1
5/9/26 - 0810 70.6 19.6 14 2.3 NE | 47 5.0 NE | 44 71.1 62.1
5/9/26 - 0800 69.8 18.6 14 1.5 SW | 216 5.1 NE | 41 70.9 62.1
5/9/26 - 0750 70.4 19.9 15 1.0 S | 173 2.4 SW | 231 70.9 62.1
5/9/26 - 0740 69.4 20.5 15 0.5 NE | 41 1.8 NE | 53 70.0 62.1
5/9/26 - 0730 68.3 18.5 15 0.2 NNE | 32 2.2 NE | 37 68.7 62.1
5/9/26 - 0720 67.8 16.7 14 2.7 NE | 41 4.0 NNE | 31 68.0 62.1
5/9/26 - 0710 67.4 13.2 12 3.8 NE | 36 5.6 NE | 35 67.6 62.1
5/9/26 - 0700 66.5 13.0 12 2.5 NE | 44 3.7 NE | 40 66.8 62.1
5/9/26 - 0650 65.9 9.2 11 2.8 NE | 36 4.5 NE | 41 66.8 62.1
5/9/26 - 0640 65.8 7.6 10 3.9 NE | 39 5.0 NE | 37 66.8 62.1
5/9/26 - 0630 66.4 5.1 9 1.2 SE | 128 3.7 NE | 53 66.8 62.1
5/9/26 - 0620 66.1 4.5 9 0.5 S | 169 1.6 SE | 134 66.5 62.1
5/9/26 - 0610 65.8 5.2 9 0.5 SW | 228 1.3 SW | 229 66.4 62.1
Max 77.3 43.7 45 14.8 - 24.6 - 78.8 67.2
Avg 70.9 23.6 20 7.5 - 11.7 - - -
Min 62.0 -2.4 6 0.2 - 1.3 - 66.4 61.9